Time,TemperatureF,DewpointF,PressureIn,WindDirection,WindDirectionDegrees,WindSpeedMPH,WindSpeedGustMPH,Humidity,HourlyPrecipIn,Conditions,Clouds,dailyrainin,SoftwareType,DateUTC
2013-07-11 00:01:00,76.0,73.2,30.01,ENE,65,0.0,0.0,91,0.00,,,0.00,Wunderground v.1.15,2013-07-11 04:01:00,
2013-07-11 00:02:00,76.0,73.2,30.02,ENE,65,0.0,0.0,91,0.00,,,0.00,Wunderground v.1.15,2013-07-11 04:02:00,
2013-07-11 00:03:00,76.0,73.2,30.01,ENE,65,0.0,0.0,91,0.00,,,0.00,Wunderground v.1.15,2013-07-11 04:03:00,
2013-07-11 00:06:00,76.1,73.3,30.02,ENE,65,0.0,0.0,91,0.00,,,0.00,Wunderground v.1.15,2013-07-11 04:06:00,
2013-07-11 00:07:00,76.1,73.3,30.02,ENE,65,0.0,0.0,91,0.00,,,0.00,Wunderground v.1.15,2013-07-11 04:07:00,
2013-07-11 00:13:00,76.2,73.4,30.02,ENE,65,0.0,0.0,91,0.00,,,0.00,Wunderground v.1.15,2013-07-11 04:13:00,
2013-07-11 00:19:00,76.2,73.4,30.02,ENE,65,0.0,0.0,91,0.00,,,0.00,Wunderground v.1.15,2013-07-11 04:19:00,
2013-07-11 00:25:00,76.4,73.6,30.02,ENE,65,0.0,0.0,91,0.00,,,0.00,Wunderground v.1.15,2013-07-11 04:25:00,
2013-07-11 00:30:00,76.4,73.6,30.02,ENE,65,0.0,0.0,91,0.00,,,0.00,Wunderground v.1.15,2013-07-11 04:30:00,
2013-07-11 00:36:00,76.3,73.5,30.02,ENE,65,0.0,0.0,91,0.00,,,0.00,Wunderground v.1.15,2013-07-11 04:36:00,
2013-07-11 00:42:00,76.4,73.6,30.02,ENE,65,0.0,0.0,91,0.00,,,0.00,Wunderground v.1.15,2013-07-11 04:42:00,
2013-07-11 00:48:00,76.4,73.6,30.02,ENE,65,0.0,0.0,91,0.00,,,0.00,Wunderground v.1.15,2013-07-11 04:48:00,
2013-07-11 00:54:00,76.5,73.7,30.01,ENE,65,0.0,0.0,91,0.00,,,0.00,Wunderground v.1.15,2013-07-11 04:54:00,
2013-07-11 00:59:00,76.5,73.7,30.01,ENE,65,0.0,0.0,91,0.00,,,0.00,Wunderground v.1.15,2013-07-11 04:59:00,
2013-07-11 01:05:00,76.6,73.8,30.01,ENE,65,0.0,0.0,91,0.00,,,0.00,Wunderground v.1.15,2013-07-11 05:05:00,
2013-07-11 01:11:00,76.6,73.8,30.01,ENE,65,0.0,0.0,91,0.00,,,0.00,Wunderground v.1.15,2013-07-11 05:11:00,
2013-07-11 01:17:00,76.8,74.0,30.01,ENE,65,0.0,0.0,91,0.00,,,0.00,Wunderground v.1.15,2013-07-11 05:17:00,
2013-07-11 01:23:00,77.0,74.2,30.01,ENE,65,0.0,0.0,91,0.00,,,0.00,Wunderground v.1.15,2013-07-11 05:23:00,
2013-07-11 01:29:00,77.2,74.4,30.01,ESE,117,0.0,0.0,91,0.00,,,0.00,Wunderground v.1.15,2013-07-11 05:29:00,
2013-07-11 01:34:00,77.2,74.4,30.01,SW,217,4.0,5.0,91,0.00,,,0.00,Wunderground v.1.15,2013-07-11 05:34:00,
2013-07-11 01:40:00,77.0,74.2,30.00,WSW,250,3.0,3.0,91,0.00,,,0.00,Wunderground v.1.15,2013-07-11 05:40:00,
2013-07-11 01:45:00,77.0,74.2,29.99,SW,235,0.0,3.0,91,0.00,,,0.00,Wunderground v.1.15,2013-07-11 05:45:00,
2013-07-11 01:50:00,76.9,74.1,29.99,South,184,3.0,3.0,91,0.00,,,0.00,Wunderground v.1.15,2013-07-11 05:50:00,
2013-07-11 01:56:00,76.7,73.9,29.99,South,182,1.0,3.0,91,0.00,,,0.00,Wunderground v.1.15,2013-07-11 05:56:00,
2013-07-11 02:01:00,76.6,73.8,29.99,SSE,163,3.0,3.0,91,0.00,,,0.00,Wunderground v.1.15,2013-07-11 06:01:00,
2013-07-11 02:06:00,76.4,73.6,29.98,SSE,166,0.0,6.0,91,0.00,,,0.00,Wunderground v.1.15,2013-07-11 06:06:00,
2013-07-11 02:11:00,76.2,73.1,29.99,South,186,0.0,1.0,90,0.00,,,0.00,Wunderground v.1.15,2013-07-11 06:11:00,
2013-07-11 02:16:00,76.1,73.0,29.99,South,186,0.0,1.0,90,0.00,,,0.00,Wunderground v.1.15,2013-07-11 06:16:00,
2013-07-11 02:21:00,76.1,73.0,29.99,South,185,0.0,1.0,90,0.00,,,0.00,Wunderground v.1.15,2013-07-11 06:21:00,
2013-07-11 02:26:00,76.1,73.0,29.99,South,185,0.0,1.0,90,0.00,,,0.00,Wunderground v.1.15,2013-07-11 06:26:00,
2013-07-11 02:31:00,76.1,73.0,29.98,South,186,0.0,0.0,90,0.00,,,0.00,Wunderground v.1.15,2013-07-11 06:31:00,
2013-07-11 02:36:00,76.1,73.0,29.98,South,185,0.0,1.0,90,0.00,,,0.00,Wunderground v.1.15,2013-07-11 06:36:00,
2013-07-11 02:41:00,76.0,72.9,29.98,South,184,0.0,1.0,90,0.00,,,0.00,Wunderground v.1.15,2013-07-11 06:41:00,
2013-07-11 02:46:00,76.0,72.9,29.98,South,184,0.0,1.0,90,0.00,,,0.00,Wunderground v.1.15,2013-07-11 06:46:00,
2013-07-11 02:51:00,76.0,72.9,29.98,South,189,0.0,1.0,90,0.00,,,0.00,Wunderground v.1.15,2013-07-11 06:51:00,
2013-07-11 02:56:00,75.9,72.8,29.98,South,189,0.0,1.0,90,0.00,,,0.00,Wunderground v.1.15,2013-07-11 06:56:00,
2013-07-11 03:01:00,75.9,72.8,29.98,South,189,0.0,0.0,90,0.00,,,0.00,Wunderground v.1.15,2013-07-11 07:01:00,
2013-07-11 03:06:00,75.9,72.8,29.98,South,189,0.0,0.0,90,0.00,,,0.00,Wunderground v.1.15,2013-07-11 07:06:00,
2013-07-11 03:11:00,75.8,72.7,29.98,South,189,0.0,0.0,90,0.00,,,0.00,Wunderground v.1.15,2013-07-11 07:11:00,
2013-07-11 03:16:00,75.8,72.7,29.98,South,189,0.0,0.0,90,0.00,,,0.00,Wunderground v.1.15,2013-07-11 07:16:00,
2013-07-11 03:21:00,75.7,72.6,29.98,South,189,0.0,0.0,90,0.00,,,0.00,Wunderground v.1.15,2013-07-11 07:21:00,
2013-07-11 03:26:00,75.7,72.6,29.97,South,189,0.0,1.0,90,0.00,,,0.00,Wunderground v.1.15,2013-07-11 07:26:00,
2013-07-11 03:31:00,75.6,72.5,29.97,South,188,0.0,1.0,90,0.00,,,0.00,Wunderground v.1.15,2013-07-11 07:31:00,
2013-07-11 03:36:00,75.6,72.8,29.98,South,188,0.0,1.0,91,0.00,,,0.00,Wunderground v.1.15,2013-07-11 07:36:00,
2013-07-11 03:41:00,75.6,72.8,29.97,South,188,0.0,0.0,91,0.00,,,0.00,Wunderground v.1.15,2013-07-11 07:41:00,
2013-07-11 03:46:00,75.6,72.5,29.98,South,188,0.0,0.0,90,0.00,,,0.00,Wunderground v.1.15,2013-07-11 07:46:00,
2013-07-11 03:51:00,75.6,72.8,29.97,South,188,0.0,0.0,91,0.00,,,0.00,Wunderground v.1.15,2013-07-11 07:51:00,
2013-07-11 03:56:00,75.6,72.8,29.97,South,188,0.0,0.0,91,0.00,,,0.00,Wunderground v.1.15,2013-07-11 07:56:00,
2013-07-11 04:01:00,75.7,72.9,29.98,South,188,0.0,1.0,91,0.00,,,0.00,Wunderground v.1.15,2013-07-11 08:01:00,
2013-07-11 04:06:00,75.7,72.9,29.98,South,188,0.0,1.0,91,0.00,,,0.00,Wunderground v.1.15,2013-07-11 08:06:00,
2013-07-11 04:11:00,75.7,72.9,29.98,South,188,0.0,0.0,91,0.00,,,0.00,Wunderground v.1.15,2013-07-11 08:11:00,
2013-07-11 04:16:00,75.7,72.9,29.98,South,188,0.0,0.0,91,0.00,,,0.00,Wunderground v.1.15,2013-07-11 08:16:00,
2013-07-11 04:21:00,75.8,73.0,29.98,South,188,0.0,0.0,91,0.00,,,0.00,Wunderground v.1.15,2013-07-11 08:21:00,
2013-07-11 04:26:00,75.9,73.1,29.98,South,188,0.0,1.0,91,0.00,,,0.00,Wunderground v.1.15,2013-07-11 08:26:00,
2013-07-11 04:31:00,76.0,73.2,29.98,South,188,0.0,0.0,91,0.00,,,0.00,Wunderground v.1.15,2013-07-11 08:31:00,
2013-07-11 04:36:00,76.0,73.2,29.98,South,188,0.0,1.0,91,0.00,,,0.00,Wunderground v.1.15,2013-07-11 08:36:00,
2013-07-11 04:41:00,76.1,73.3,29.98,SE,136,0.0,3.0,91,0.00,,,0.00,Wunderground v.1.15,2013-07-11 08:41:00,
2013-07-11 04:46:00,76.2,73.4,29.98,SE,136,0.0,3.0,91,0.00,,,0.00,Wunderground v.1.15,2013-07-11 08:46:00,
2013-07-11 04:51:00,76.2,73.4,29.98,SE,134,0.0,2.0,91,0.00,,,0.00,Wunderground v.1.15,2013-07-11 08:51:00,
2013-07-11 04:57:00,76.2,73.4,29.98,ESE,115,0.0,3.0,91,0.00,,,0.00,Wunderground v.1.15,2013-07-11 08:57:00,
2013-07-11 05:02:00,76.3,73.5,29.97,ESE,115,0.0,0.0,91,0.00,,,0.00,Wunderground v.1.15,2013-07-11 09:02:00,
2013-07-11 05:07:00,76.3,73.5,29.97,ESE,119,0.0,2.0,91,0.00,,,0.00,Wunderground v.1.15,2013-07-11 09:07:00,
2013-07-11 05:12:00,76.3,73.5,29.97,ESE,119,3.0,3.0,91,0.00,,,0.00,Wunderground v.1.15,2013-07-11 09:12:00,
2013-07-11 05:17:00,76.3,73.5,29.97,ESE,119,0.0,3.0,91,0.00,,,0.00,Wunderground v.1.15,2013-07-11 09:17:00,
2013-07-11 05:22:00,76.3,73.5,29.97,SE,125,0.0,2.0,91,0.00,,,0.00,Wunderground v.1.15,2013-07-11 09:22:00,
2013-07-11 05:27:00,76.2,73.1,29.98,SE,125,0.0,2.0,90,0.00,,,0.00,Wunderground v.1.15,2013-07-11 09:27:00,
2013-07-11 05:32:00,76.2,73.1,29.98,SE,125,0.0,0.0,90,0.00,,,0.00,Wunderground v.1.15,2013-07-11 09:32:00,
2013-07-11 05:37:00,76.2,73.1,29.98,SE,125,0.0,2.0,90,0.00,,,0.00,Wunderground v.1.15,2013-07-11 09:37:00,
2013-07-11 05:42:00,76.1,73.0,29.98,SE,125,0.0,0.0,90,0.00,,,0.00,Wunderground v.1.15,2013-07-11 09:42:00,
2013-07-11 05:47:00,76.1,73.0,29.98,SE,125,0.0,2.0,90,0.00,,,0.00,Wunderground v.1.15,2013-07-11 09:47:00,
2013-07-11 05:52:00,76.0,72.9,29.98,SE,125,0.0,1.0,90,0.00,,,0.00,Wunderground v.1.15,2013-07-11 09:52:00,
2013-07-11 05:57:00,76.0,72.9,29.98,SE,125,0.0,1.0,90,0.00,,,0.00,Wunderground v.1.15,2013-07-11 09:57:00,
2013-07-11 06:02:00,75.9,72.8,29.98,SE,125,0.0,0.0,90,0.00,,,0.00,Wunderground v.1.15,2013-07-11 10:02:00,
2013-07-11 06:07:00,75.9,73.1,29.98,ESE,120,0.0,1.0,91,0.00,,,0.00,Wunderground v.1.15,2013-07-11 10:07:00,
2013-07-11 06:12:00,75.8,73.0,29.98,ESE,120,0.0,0.0,91,0.00,,,0.00,Wunderground v.1.15,2013-07-11 10:12:00,
2013-07-11 06:17:00,75.8,73.0,29.98,ESE,120,0.0,1.0,91,0.00,,,0.00,Wunderground v.1.15,2013-07-11 10:17:00,
2013-07-11 06:22:00,75.8,73.0,29.98,ESE,120,0.0,0.0,91,0.00,,,0.00,Wunderground v.1.15,2013-07-11 10:22:00,
2013-07-11 06:27:00,75.8,73.0,29.99,ESE,120,0.0,0.0,91,0.00,,,0.00,Wunderground v.1.15,2013-07-11 10:27:00,
2013-07-11 06:32:00,75.8,73.0,29.99,ESE,120,0.0,0.0,91,0.00,,,0.00,Wunderground v.1.15,2013-07-11 10:32:00,
2013-07-11 06:37:00,75.8,73.0,29.99,ESE,120,0.0,2.0,91,0.00,,,0.00,Wunderground v.1.15,2013-07-11 10:37:00,
2013-07-11 06:42:00,75.8,73.0,29.99,ESE,120,0.0,1.0,91,0.00,,,0.00,Wunderground v.1.15,2013-07-11 10:42:00,
2013-07-11 06:47:00,75.9,73.1,29.99,ESE,120,0.0,1.0,91,0.00,,,0.00,Wunderground v.1.15,2013-07-11 10:47:00,
2013-07-11 06:52:00,75.8,73.0,29.99,ESE,120,0.0,0.0,91,0.00,,,0.00,Wunderground v.1.15,2013-07-11 10:52:00,
2013-07-11 06:57:00,75.8,73.0,29.99,ESE,120,0.0,0.0,91,0.00,,,0.00,Wunderground v.1.15,2013-07-11 10:57:00,
2013-07-11 07:02:00,75.8,73.0,29.99,ESE,120,0.0,0.0,91,0.00,,,0.00,Wunderground v.1.15,2013-07-11 11:02:00,
2013-07-11 07:07:00,75.8,73.0,29.99,ESE,120,0.0,0.0,91,0.00,,,0.00,Wunderground v.1.15,2013-07-11 11:07:00,
2013-07-11 07:12:00,75.9,73.1,29.99,ESE,120,0.0,0.0,91,0.00,,,0.00,Wunderground v.1.15,2013-07-11 11:12:00,
2013-07-11 07:17:00,76.0,73.2,29.99,ESE,120,0.0,2.0,91,0.00,,,0.00,Wunderground v.1.15,2013-07-11 11:17:00,
2013-07-11 07:22:00,76.0,73.2,29.99,ESE,120,0.0,2.0,91,0.00,,,0.00,Wunderground v.1.15,2013-07-11 11:22:00,
2013-07-11 07:27:00,76.1,73.3,29.99,ESE,120,1.0,2.0,91,0.00,,,0.00,Wunderground v.1.15,2013-07-11 11:27:00,
2013-07-11 07:32:00,76.2,73.4,30.00,ESE,120,0.0,1.0,91,0.00,,,0.00,Wunderground v.1.15,2013-07-11 11:32:00,
2013-07-11 07:38:00,76.2,73.4,29.99,ESE,120,0.0,2.0,91,0.00,,,0.00,Wunderground v.1.15,2013-07-11 11:38:00,
2013-07-11 07:43:00,76.3,73.5,29.99,ESE,120,0.0,2.0,91,0.00,,,0.00,Wunderground v.1.15,2013-07-11 11:43:00,
2013-07-11 07:48:00,76.5,73.7,29.99,ESE,120,0.0,2.0,91,0.00,,,0.00,Wunderground v.1.15,2013-07-11 11:48:00,
2013-07-11 07:53:00,76.7,73.9,29.99,ESE,113,2.0,6.0,91,0.00,,,0.00,Wunderground v.1.15,2013-07-11 11:53:00,
2013-07-11 07:58:00,76.9,74.1,29.99,ESE,122,0.0,6.0,91,0.00,,,0.00,Wunderground v.1.15,2013-07-11 11:58:00,
2013-07-11 08:03:00,77.2,74.4,29.99,SE,140,1.0,3.0,91,0.00,,,0.00,Wunderground v.1.15,2013-07-11 12:03:00,
2013-07-11 08:08:00,77.5,74.3,29.99,SE,145,0.0,6.0,90,0.00,,,0.00,Wunderground v.1.15,2013-07-11 12:08:00,
2013-07-11 08:13:00,77.7,74.5,29.99,SE,126,2.0,4.0,90,0.00,,,0.00,Wunderground v.1.15,2013-07-11 12:13:00,
2013-07-11 08:18:00,78.0,74.5,29.99,SSE,150,0.0,5.0,89,0.00,,,0.00,Wunderground v.1.15,2013-07-11 12:18:00,
2013-07-11 08:23:00,78.3,74.8,29.98,SE,133,1.0,4.0,89,0.00,,,0.00,Wunderground v.1.15,2013-07-11 12:23:00,
2013-07-11 08:28:00,78.6,74.7,29.98,ESE,123,0.0,5.0,88,0.00,,,0.00,Wunderground v.1.15,2013-07-11 12:28:00,
2013-07-11 08:33:00,78.9,75.0,29.98,ESE,121,4.0,4.0,88,0.00,,,0.00,Wunderground v.1.15,2013-07-11 12:33:00,
2013-07-11 08:38:00,79.2,75.3,29.98,SSE,157,6.0,7.0,88,0.00,,,0.00,Wunderground v.1.15,2013-07-11 12:38:00,
2013-07-11 08:43:00,79.3,75.1,29.98,ESE,123,3.0,6.0,87,0.00,,,0.00,Wunderground v.1.15,2013-07-11 12:43:00,
2013-07-11 08:48:00,79.5,75.3,29.99,SE,144,0.0,6.0,87,0.00,,,0.00,Wunderground v.1.15,2013-07-11 12:48:00,
2013-07-11 08:53:00,79.8,75.6,29.99,SE,144,5.0,6.0,87,0.00,,,0.00,Wunderground v.1.15,2013-07-11 12:53:00,
2013-07-11 08:58:00,80.0,75.8,29.99,SSE,164,1.0,6.0,87,0.00,,,0.00,Wunderground v.1.15,2013-07-11 12:58:00,
2013-07-11 09:03:00,80.0,75.4,29.99,South,184,3.0,8.0,86,0.00,,,0.00,Wunderground v.1.15,2013-07-11 13:03:00,
2013-07-11 09:08:00,80.1,75.2,29.99,South,175,3.0,10.0,85,0.00,,,0.00,Wunderground v.1.15,2013-07-11 13:08:00,
2013-07-11 09:13:00,80.3,75.0,29.99,SSE,159,3.0,6.0,84,0.00,,,0.00,Wunderground v.1.15,2013-07-11 13:13:00,
2013-07-11 09:19:00,80.6,75.0,29.99,SE,144,1.0,6.0,83,0.00,,,0.00,Wunderground v.1.15,2013-07-11 13:19:00,
2013-07-11 09:24:00,81.0,75.3,29.99,SSW,207,2.0,8.0,83,0.00,,,0.00,Wunderground v.1.15,2013-07-11 13:24:00,
2013-07-11 09:29:00,81.1,75.1,29.99,SE,127,1.0,10.0,82,0.00,,,0.00,Wunderground v.1.15,2013-07-11 13:29:00,
2013-07-11 09:34:00,81.2,74.8,30.00,SSE,154,3.0,6.0,81,0.00,,,0.00,Wunderground v.1.15,2013-07-11 13:34:00,
2013-07-11 09:39:00,81.6,74.8,29.99,South,185,3.0,6.0,80,0.00,,,0.00,Wunderground v.1.15,2013-07-11 13:39:00,
2013-07-11 09:44:00,81.8,75.0,29.99,SSW,196,0.0,5.0,80,0.00,,,0.00,Wunderground v.1.15,2013-07-11 13:44:00,
2013-07-11 09:50:00,82.1,75.7,29.99,SSW,205,3.0,3.0,81,0.00,,,0.00,Wunderground v.1.15,2013-07-11 13:50:00,
2013-07-11 09:55:00,82.3,75.5,29.99,South,180,6.0,6.0,80,0.00,,,0.00,Wunderground v.1.15,2013-07-11 13:55:00,
2013-07-11 10:00:00,82.5,75.7,29.99,South,187,1.0,3.0,80,0.00,,,0.00,Wunderground v.1.15,2013-07-11 14:00:00,
2013-07-11 10:05:00,82.6,75.8,29.99,South,178,4.0,7.0,80,0.00,,,0.00,Wunderground v.1.15,2013-07-11 14:05:00,
2013-07-11 10:12:00,82.8,76.0,29.99,ESE,109,4.0,4.0,80,0.00,,,0.00,Wunderground v.1.15,2013-07-11 14:12:00,
2013-07-11 10:17:00,83.2,76.4,29.99,SSW,198,4.0,7.0,80,0.00,,,0.00,Wunderground v.1.15,2013-07-11 14:17:00,
2013-07-11 10:22:00,83.2,76.0,29.99,SSE,161,9.0,9.0,79,0.00,,,0.00,Wunderground v.1.15,2013-07-11 14:22:00,
2013-07-11 10:28:00,83.3,76.5,29.99,SSE,150,4.0,9.0,80,0.00,,,0.00,Wunderground v.1.15,2013-07-11 14:28:00,
2013-07-11 10:33:00,83.3,75.7,29.99,South,170,4.0,9.0,78,0.00,,,0.00,Wunderground v.1.15,2013-07-11 14:33:00,
2013-07-11 10:38:00,83.2,76.0,29.99,SE,145,6.0,9.0,79,0.00,,,0.00,Wunderground v.1.15,2013-07-11 14:38:00,
2013-07-11 10:44:00,83.1,75.9,30.00,SSE,159,4.0,8.0,79,0.00,,,0.00,Wunderground v.1.15,2013-07-11 14:44:00,
2013-07-11 10:50:00,82.8,75.2,30.00,ESE,117,3.0,5.0,78,0.00,,,0.00,Wunderground v.1.15,2013-07-11 14:50:00,
2013-07-11 10:55:00,82.1,74.9,30.00,SE,144,0.0,6.0,79,0.00,,,0.00,Wunderground v.1.15,2013-07-11 14:55:00,
2013-07-11 11:00:00,81.5,75.1,30.00,ESE,103,5.0,5.0,81,0.00,,,0.00,Wunderground v.1.15,2013-07-11 15:00:00,
2013-07-11 11:05:00,81.2,75.2,30.00,SSW,192,1.0,5.0,82,0.00,,,0.00,Wunderground v.1.15,2013-07-11 15:05:00,
2013-07-11 11:10:00,81.2,75.2,30.00,South,181,0.0,4.0,82,0.00,,,0.00,Wunderground v.1.15,2013-07-11 15:10:00,
2013-07-11 11:15:00,81.4,75.7,30.00,SSE,161,0.0,4.0,83,0.00,,,0.00,Wunderground v.1.15,2013-07-11 15:15:00,
2013-07-11 11:21:00,81.7,76.0,30.00,SW,236,0.0,1.0,83,0.00,,,0.00,Wunderground v.1.15,2013-07-11 15:21:00,
2013-07-11 11:26:00,81.6,75.6,30.00,SSW,199,0.0,5.0,82,0.00,,,0.01,Wunderground v.1.15,2013-07-11 15:26:00,
2013-07-11 11:31:00,81.6,75.6,30.00,SW,217,2.0,3.0,82,0.00,,,0.01,Wunderground v.1.15,2013-07-11 15:31:00,
2013-07-11 11:36:00,81.6,75.9,30.00,SSW,213,0.0,4.0,83,0.00,,,0.01,Wunderground v.1.15,2013-07-11 15:36:00,
2013-07-11 11:41:00,81.5,75.1,30.00,SSW,202,0.0,1.0,81,0.00,,,0.01,Wunderground v.1.15,2013-07-11 15:41:00,
2013-07-11 11:46:00,81.6,75.2,30.00,SSW,204,2.0,7.0,81,0.00,,,0.01,Wunderground v.1.15,2013-07-11 15:46:00,
2013-07-11 11:51:00,81.9,75.1,30.00,SSW,206,0.0,3.0,80,0.00,,,0.01,Wunderground v.1.15,2013-07-11 15:51:00,
2013-07-11 11:56:00,82.2,75.0,30.01,SSW,209,0.0,3.0,79,0.00,,,0.01,Wunderground v.1.15,2013-07-11 15:56:00,
2013-07-11 12:01:00,82.5,75.3,30.00,SSE,165,0.0,4.0,79,0.00,,,0.01,Wunderground v.1.15,2013-07-11 16:01:00,
2013-07-11 12:07:00,82.8,75.2,30.00,SW,221,0.0,5.0,78,0.00,,,0.01,Wunderground v.1.15,2013-07-11 16:07:00,
2013-07-11 12:11:00,83.1,75.1,30.00,SSW,209,2.0,6.0,77,0.00,,,0.01,Wunderground v.1.15,2013-07-11 16:11:00,
2013-07-11 12:16:00,83.4,75.4,30.00,SW,231,3.0,6.0,77,0.00,,,0.01,Wunderground v.1.15,2013-07-11 16:16:00,
2013-07-11 12:22:00,83.6,75.2,30.00,SSW,210,0.0,7.0,76,0.00,,,0.01,Wunderground v.1.15,2013-07-11 16:22:00,
2013-07-11 12:27:00,84.0,75.6,30.00,West,279,0.0,7.0,76,0.00,,,0.01,Wunderground v.1.15,2013-07-11 16:27:00,
2013-07-11 12:32:00,84.4,75.6,30.00,WSW,250,6.0,6.0,75,0.00,,,0.01,Wunderground v.1.15,2013-07-11 16:32:00,
2013-07-11 12:37:00,84.3,75.9,29.99,WSW,242,5.0,6.0,76,0.00,,,0.01,Wunderground v.1.15,2013-07-11 16:37:00,
2013-07-11 12:42:00,84.2,75.4,29.99,West,275,4.0,7.0,75,0.00,,,0.01,Wunderground v.1.15,2013-07-11 16:42:00,
2013-07-11 12:47:00,84.6,75.8,29.99,SW,232,4.0,9.0,75,0.00,,,0.01,Wunderground v.1.15,2013-07-11 16:47:00,
2013-07-11 12:52:00,84.7,75.9,29.99,SSE,153,6.0,10.0,75,0.00,,,0.01,Wunderground v.1.15,2013-07-11 16:52:00,
2013-07-11 12:58:00,84.6,75.4,29.99,South,174,0.0,10.0,74,0.00,,,0.01,Wunderground v.1.15,2013-07-11 16:58:00,
2013-07-11 13:03:00,84.6,75.0,29.99,SW,225,6.0,7.0,73,0.00,,,0.01,Wunderground v.1.15,2013-07-11 17:03:00,
2013-07-11 13:09:00,84.5,74.9,29.99,SW,227,4.0,7.0,73,0.00,,,0.01,Wunderground v.1.15,2013-07-11 17:09:00,
2013-07-11 13:15:00,84.8,75.2,29.99,SW,226,0.0,7.0,73,0.00,,,0.01,Wunderground v.1.15,2013-07-11 17:15:00,
2013-07-11 13:20:00,85.4,75.3,29.99,WSW,240,5.0,7.0,72,0.00,,,0.01,Wunderground v.1.15,2013-07-11 17:20:00,
2013-07-11 13:25:00,85.7,75.2,29.99,SSW,211,6.0,10.0,71,0.00,,,0.01,Wunderground v.1.15,2013-07-11 17:25:00,
2013-07-11 13:30:00,85.9,75.4,29.99,WSW,248,3.0,5.0,71,0.00,,,0.01,Wunderground v.1.15,2013-07-11 17:30:00,
2013-07-11 13:36:00,85.8,75.3,29.99,SW,227,3.0,11.0,71,0.00,,,0.01,Wunderground v.1.15,2013-07-11 17:36:00,
2013-07-11 13:41:00,85.8,76.1,29.98,WSW,238,4.0,6.0,73,0.00,,,0.01,Wunderground v.1.15,2013-07-11 17:41:00,
2013-07-11 13:46:00,85.4,74.9,29.98,SW,223,5.0,13.0,71,0.00,,,0.01,Wunderground v.1.15,2013-07-11 17:46:00,
2013-07-11 13:51:00,85.0,75.4,29.98,SW,234,7.0,9.0,73,0.00,,,0.01,Wunderground v.1.15,2013-07-11 17:51:00,
2013-07-11 13:56:00,84.4,75.2,29.98,WSW,237,5.0,16.0,74,0.00,,,0.01,Wunderground v.1.15,2013-07-11 17:56:00,
2013-07-11 14:02:00,83.0,75.0,29.98,SSW,205,8.0,8.0,77,0.00,,,0.01,Wunderground v.1.15,2013-07-11 18:02:00,
2013-07-11 14:07:00,81.9,72.8,29.98,SW,219,4.0,13.0,74,0.00,,,0.01,Wunderground v.1.15,2013-07-11 18:07:00,
2013-07-11 14:12:00,81.4,73.1,29.99,West,263,6.0,9.0,76,0.00,,,0.01,Wunderground v.1.15,2013-07-11 18:12:00,
2013-07-11 14:17:00,81.1,73.2,29.98,West,265,0.0,9.0,77,0.00,,,0.01,Wunderground v.1.15,2013-07-11 18:17:00,
2013-07-11 14:23:00,80.9,72.6,29.98,SW,221,3.0,5.0,76,0.00,,,0.01,Wunderground v.1.15,2013-07-11 18:23:00,
2013-07-11 14:28:00,80.9,73.8,29.99,WSW,239,0.0,9.0,79,0.00,,,0.01,Wunderground v.1.15,2013-07-11 18:28:00,
2013-07-11 14:33:00,81.0,74.2,29.98,WSW,240,1.0,5.0,80,0.00,,,0.01,Wunderground v.1.15,2013-07-11 18:33:00,
2013-07-11 14:38:00,80.9,74.5,29.98,SW,218,4.0,7.0,81,0.00,,,0.01,Wunderground v.1.15,2013-07-11 18:38:00,
2013-07-11 14:43:00,80.5,74.5,29.98,SW,223,5.0,6.0,82,0.00,,,0.01,Wunderground v.1.15,2013-07-11 18:43:00,
2013-07-11 14:48:00,80.2,74.6,29.98,WSW,247,4.0,6.0,83,0.00,,,0.01,Wunderground v.1.15,2013-07-11 18:48:00,
2013-07-11 14:53:00,80.0,74.4,29.98,WSW,247,0.0,7.0,83,0.00,,,0.01,Wunderground v.1.15,2013-07-11 18:53:00,
2013-07-11 14:58:00,80.0,74.4,29.98,SW,219,0.0,7.0,83,0.00,,,0.01,Wunderground v.1.15,2013-07-11 18:58:00,
2013-07-11 15:04:00,80.0,74.4,29.98,SW,219,0.0,1.0,83,0.00,,,0.01,Wunderground v.1.15,2013-07-11 19:04:00,
2013-07-11 15:09:00,80.0,74.0,29.98,SW,220,0.0,1.0,82,0.00,,,0.01,Wunderground v.1.15,2013-07-11 19:09:00,
2013-07-11 15:14:00,80.1,74.1,29.97,SW,220,0.0,1.0,82,0.00,,,0.01,Wunderground v.1.15,2013-07-11 19:14:00,
2013-07-11 15:19:00,80.5,74.5,29.97,SW,221,0.0,3.0,82,0.00,,,0.01,Wunderground v.1.15,2013-07-11 19:19:00,
2013-07-11 15:24:00,80.7,74.7,29.96,SW,221,0.0,0.0,82,0.00,,,0.01,Wunderground v.1.15,2013-07-11 19:24:00,
2013-07-11 15:29:00,80.8,74.4,29.96,SW,222,0.0,2.0,81,0.00,,,0.01,Wunderground v.1.15,2013-07-11 19:29:00,
2013-07-11 15:34:00,80.9,74.5,29.95,SW,222,2.0,2.0,81,0.00,,,0.01,Wunderground v.1.15,2013-07-11 19:34:00,
2013-07-11 15:39:00,81.2,74.4,29.95,SW,222,0.0,2.0,80,0.00,,,0.01,Wunderground v.1.15,2013-07-11 19:39:00,
2013-07-11 15:44:00,81.6,74.5,29.95,WSW,237,0.0,5.0,79,0.00,,,0.01,Wunderground v.1.15,2013-07-11 19:44:00,
2013-07-11 15:49:00,82.1,74.6,29.95,SSW,198,3.0,5.0,78,0.00,,,0.01,Wunderground v.1.15,2013-07-11 19:49:00,
2013-07-11 15:54:00,82.6,75.4,29.95,SW,232,1.0,5.0,79,0.00,,,0.01,Wunderground v.1.15,2013-07-11 19:54:00,
2013-07-11 16:00:00,83.3,76.1,29.95,SSW,203,1.0,3.0,79,0.00,,,0.01,Wunderground v.1.15,2013-07-11 20:00:00,
2013-07-11 16:05:00,83.8,76.6,29.95,SW,217,4.0,7.0,79,0.00,,,0.01,Wunderground v.1.15,2013-07-11 20:05:00,
2013-07-11 16:10:00,84.3,76.7,29.95,SW,221,4.0,4.0,78,0.00,,,0.01,Wunderground v.1.15,2013-07-11 20:10:00,
2013-07-11 16:15:00,84.5,77.3,29.95,WSW,238,5.0,6.0,79,0.00,,,0.01,Wunderground v.1.15,2013-07-11 20:15:00,
2013-07-11 16:21:00,84.8,76.0,29.94,WSW,238,4.0,6.0,75,0.00,,,0.01,Wunderground v.1.15,2013-07-11 20:21:00,
2013-07-11 16:26:00,84.9,76.1,29.94,WSW,242,3.0,6.0,75,0.00,,,0.01,Wunderground v.1.15,2013-07-11 20:26:00,
2013-07-11 16:31:00,85.5,75.4,29.94,WSW,254,2.0,3.0,72,0.00,,,0.01,Wunderground v.1.15,2013-07-11 20:31:00,
2013-07-11 16:36:00,85.7,75.6,29.94,South,178,3.0,10.0,72,0.00,,,0.01,Wunderground v.1.15,2013-07-11 20:36:00,
2013-07-11 16:41:00,85.5,74.6,29.94,SSE,161,4.0,6.0,70,0.00,,,0.01,Wunderground v.1.15,2013-07-11 20:41:00,
2013-07-11 16:46:00,85.8,76.1,29.94,SSW,209,7.0,7.0,73,0.00,,,0.01,Wunderground v.1.15,2013-07-11 20:46:00,
2013-07-11 16:52:00,85.8,75.7,29.94,SW,227,3.0,8.0,72,0.00,,,0.01,Wunderground v.1.15,2013-07-11 20:52:00,
2013-07-11 16:57:00,85.3,75.7,29.93,SSW,213,4.0,11.0,73,0.00,,,0.01,Wunderground v.1.15,2013-07-11 20:57:00,
2013-07-11 17:02:00,85.0,75.4,29.94,SW,227,5.0,7.0,73,0.00,,,0.01,Wunderground v.1.15,2013-07-11 21:02:00,
2013-07-11 17:09:00,84.4,75.6,29.93,South,181,4.0,7.0,75,0.00,,,0.01,Wunderground v.1.15,2013-07-11 21:09:00,
2013-07-11 17:14:00,84.1,75.3,29.93,South,177,4.0,7.0,75,0.00,,,0.01,Wunderground v.1.15,2013-07-11 21:14:00,
2013-07-11 17:19:00,84.0,75.2,29.93,SW,221,6.0,11.0,75,0.00,,,0.01,Wunderground v.1.15,2013-07-11 21:19:00,
2013-07-11 17:24:00,83.9,75.1,29.92,SSW,212,0.0,9.0,75,0.00,,,0.01,Wunderground v.1.15,2013-07-11 21:24:00,
2013-07-11 17:29:00,84.0,75.2,29.93,SW,235,5.0,9.0,75,0.00,,,0.01,Wunderground v.1.15,2013-07-11 21:29:00,
2013-07-11 17:34:00,83.8,75.0,29.93,SW,232,1.0,7.0,75,0.00,,,0.01,Wunderground v.1.15,2013-07-11 21:34:00,
2013-07-11 17:39:00,83.7,75.3,29.92,SSW,212,5.0,7.0,76,0.00,,,0.01,Wunderground v.1.15,2013-07-11 21:39:00,
2013-07-11 17:45:00,83.7,76.1,29.93,SW,234,4.0,10.0,78,0.00,,,0.01,Wunderground v.1.15,2013-07-11 21:45:00,
2013-07-11 17:50:00,83.5,76.3,29.93,WSW,242,4.0,4.0,79,0.00,,,0.01,Wunderground v.1.15,2013-07-11 21:50:00,
2013-07-11 17:55:00,83.5,76.3,29.93,WSW,245,4.0,10.0,79,0.00,,,0.01,Wunderground v.1.15,2013-07-11 21:55:00,
2013-07-11 18:00:00,83.6,76.4,29.93,SW,232,1.0,5.0,79,0.00,,,0.01,Wunderground v.1.15,2013-07-11 22:00:00,
2013-07-11 18:05:00,83.6,76.4,29.92,SW,219,3.0,7.0,79,0.00,,,0.01,Wunderground v.1.15,2013-07-11 22:05:00,
2013-07-11 18:11:00,83.6,76.4,29.92,SSW,205,4.0,7.0,79,0.00,,,0.01,Wunderground v.1.15,2013-07-11 22:11:00,
2013-07-11 18:16:00,83.8,76.6,29.93,WSW,252,3.0,7.0,79,0.00,,,0.01,Wunderground v.1.15,2013-07-11 22:16:00,
2013-07-11 18:21:00,83.8,76.6,29.93,SSE,164,4.0,6.0,79,0.00,,,0.01,Wunderground v.1.15,2013-07-11 22:21:00,
2013-07-11 18:26:00,83.9,76.7,29.93,SW,221,2.0,6.0,79,0.00,,,0.01,Wunderground v.1.15,2013-07-11 22:26:00,
2013-07-11 18:31:00,83.8,76.6,29.93,SW,215,4.0,7.0,79,0.00,,,0.01,Wunderground v.1.15,2013-07-11 22:31:00,
2013-07-11 18:36:00,83.6,76.4,29.93,WSW,247,3.0,7.0,79,0.00,,,0.01,Wunderground v.1.15,2013-07-11 22:36:00,
2013-07-11 18:41:00,83.6,76.8,29.93,SW,226,5.0,5.0,80,0.00,,,0.01,Wunderground v.1.15,2013-07-11 22:41:00,
2013-07-11 18:47:00,83.4,76.6,29.93,SW,227,0.0,6.0,80,0.00,,,0.01,Wunderground v.1.15,2013-07-11 22:47:00,
2013-07-11 18:52:00,83.2,76.4,29.93,South,179,3.0,6.0,80,0.00,,,0.01,Wunderground v.1.15,2013-07-11 22:52:00,
2013-07-11 18:57:00,83.1,76.3,29.93,SSW,202,5.0,7.0,80,0.00,,,0.01,Wunderground v.1.15,2013-07-11 22:57:00,
2013-07-11 19:02:00,83.0,76.2,29.93,SSW,211,0.0,3.0,80,0.00,,,0.01,Wunderground v.1.15,2013-07-11 23:02:00,
2013-07-11 19:07:00,83.1,76.3,29.94,SW,214,1.0,5.0,80,0.00,,,0.01,Wunderground v.1.15,2013-07-11 23:07:00,
2013-07-11 19:12:00,83.0,76.2,29.94,WSW,238,4.0,6.0,80,0.00,,,0.01,Wunderground v.1.15,2013-07-11 23:12:00,
2013-07-11 19:17:00,82.9,76.1,29.94,SW,224,5.0,6.0,80,0.00,,,0.01,Wunderground v.1.15,2013-07-11 23:17:00,
2013-07-11 19:22:00,83.0,76.6,29.94,SSW,194,5.0,5.0,81,0.00,,,0.01,Wunderground v.1.15,2013-07-11 23:22:00,
2013-07-11 19:28:00,83.0,76.2,29.94,SSW,196,0.0,5.0,80,0.00,,,0.01,Wunderground v.1.15,2013-07-11 23:28:00,
2013-07-11 19:33:00,82.9,76.1,29.94,SSW,202,4.0,4.0,80,0.00,,,0.01,Wunderground v.1.15,2013-07-11 23:33:00,
2013-07-11 19:38:00,82.8,76.0,29.94,SSE,164,0.0,5.0,80,0.00,,,0.01,Wunderground v.1.15,2013-07-11 23:38:00,
2013-07-11 19:44:00,82.7,76.3,29.93,SSW,209,5.0,5.0,81,0.00,,,0.01,Wunderground v.1.15,2013-07-11 23:44:00,
2013-07-11 19:49:00,82.7,76.3,29.94,SW,225,2.0,5.0,81,0.00,,,0.01,Wunderground v.1.15,2013-07-11 23:49:00,
2013-07-11 19:55:00,82.6,76.2,29.94,South,184,1.0,3.0,81,0.00,,,0.01,Wunderground v.1.15,2013-07-11 23:55:00,
2013-07-11 20:02:00,82.6,76.2,29.93,SSE,168,3.0,3.0,81,0.00,,,0.01,Wunderground v.1.15,2013-07-12 00:02:00,
2013-07-11 20:07:00,82.4,76.0,29.94,SSW,192,3.0,5.0,81,0.00,,,0.01,Wunderground v.1.15,2013-07-12 00:07:00,
2013-07-11 20:12:00,82.3,75.9,29.94,SSW,198,1.0,5.0,81,0.00,,,0.01,Wunderground v.1.15,2013-07-12 00:12:00,
2013-07-11 20:17:00,82.3,76.3,29.94,SW,215,0.0,6.0,82,0.00,,,0.01,Wunderground v.1.15,2013-07-12 00:17:00,
2013-07-11 20:22:00,82.2,76.2,29.94,SSW,212,0.0,3.0,82,0.00,,,0.01,Wunderground v.1.15,2013-07-12 00:22:00,
2013-07-11 20:28:00,82.1,76.1,29.94,SSW,207,2.0,5.0,82,0.00,,,0.01,Wunderground v.1.15,2013-07-12 00:28:00,
2013-07-11 20:33:00,82.0,76.0,29.94,SSW,212,0.0,4.0,82,0.00,,,0.01,Wunderground v.1.15,2013-07-12 00:33:00,
2013-07-11 20:38:00,82.0,76.0,29.94,SW,220,0.0,4.0,82,0.00,,,0.01,Wunderground v.1.15,2013-07-12 00:38:00,
2013-07-11 20:44:00,81.9,76.2,29.94,SW,234,5.0,5.0,83,0.00,,,0.01,Wunderground v.1.15,2013-07-12 00:44:00,
2013-07-11 20:49:00,81.8,76.1,29.94,SW,228,0.0,5.0,83,0.00,,,0.01,Wunderground v.1.15,2013-07-12 00:49:00,
2013-07-11 20:54:00,81.7,76.0,29.94,SW,228,0.0,1.0,83,0.00,,,0.01,Wunderground v.1.15,2013-07-12 00:54:00,
2013-07-11 20:59:00,81.7,76.0,29.94,SW,228,0.0,2.0,83,0.00,,,0.01,Wunderground v.1.15,2013-07-12 00:59:00,
2013-07-11 21:04:00,81.6,75.9,29.94,SW,227,0.0,4.0,83,0.00,,,0.01,Wunderground v.1.15,2013-07-12 01:04:00,
2013-07-11 21:09:00,81.6,75.9,29.94,SW,227,0.0,4.0,83,0.00,,,0.01,Wunderground v.1.15,2013-07-12 01:09:00,
2013-07-11 21:14:00,81.5,75.5,29.94,SW,227,0.0,0.0,82,0.00,,,0.01,Wunderground v.1.15,2013-07-12 01:14:00,
2013-07-11 21:19:00,81.5,75.5,29.94,SW,227,0.0,0.0,82,0.00,,,0.01,Wunderground v.1.15,2013-07-12 01:19:00,
2013-07-11 21:25:00,81.4,75.4,29.95,SW,227,0.0,1.0,82,0.00,,,0.01,Wunderground v.1.15,2013-07-12 01:25:00,
2013-07-11 21:30:00,81.4,75.4,29.95,SW,227,0.0,0.0,82,0.00,,,0.01,Wunderground v.1.15,2013-07-12 01:30:00,
2013-07-11 21:35:00,81.4,75.7,29.95,SW,227,0.0,2.0,83,0.00,,,0.01,Wunderground v.1.15,2013-07-12 01:35:00,
2013-07-11 21:40:00,81.4,75.7,29.95,SW,227,0.0,0.0,83,0.00,,,0.01,Wunderground v.1.15,2013-07-12 01:40:00,
2013-07-11 21:45:00,81.2,75.5,29.95,SW,227,0.0,1.0,83,0.00,,,0.01,Wunderground v.1.15,2013-07-12 01:45:00,
2013-07-11 21:50:00,81.1,75.4,29.95,SW,227,0.0,1.0,83,0.00,,,0.01,Wunderground v.1.15,2013-07-12 01:50:00,
2013-07-11 21:55:00,81.1,75.4,29.95,SW,227,0.0,3.0,83,0.00,,,0.01,Wunderground v.1.15,2013-07-12 01:55:00,
2013-07-11 22:00:00,81.0,75.0,29.95,SW,227,0.0,0.0,82,0.00,,,0.01,Wunderground v.1.15,2013-07-12 02:00:00,
2013-07-11 22:05:00,80.9,75.2,29.95,SW,227,0.0,0.0,83,0.00,,,0.01,Wunderground v.1.15,2013-07-12 02:05:00,